Time,TemperatureF,DewpointF,PressureIn,WindDirection,WindDirectionDegrees,WindSpeedMPH,WindSpeedGustMPH,Humidity,HourlyPrecipIn,Conditions,Clouds,dailyrainin,SoftwareType,DateUTC
2013-03-07 00:01:00,43.3,37.0,29.84,SSW,211,15.0,17.0,79,0.00,,,0.23,weatherlink.com 1.10,2013-03-07 08:01:00,
2013-03-07 00:16:00,43.0,37.0,29.85,SW,217,17.0,23.0,79,0.00,,,0.23,weatherlink.com 1.10,2013-03-07 08:16:00,
2013-03-07 00:31:00,43.2,37.0,29.85,SW,217,16.0,19.0,79,0.00,,,0.23,weatherlink.com 1.10,2013-03-07 08:31:00,
2013-03-07 00:46:00,42.9,37.0,29.86,SSW,210,13.0,17.0,80,0.00,,,0.23,weatherlink.com 1.10,2013-03-07 08:46:00,
2013-03-07 01:01:00,42.6,37.0,29.86,SSW,207,8.0,13.0,81,0.00,,,0.23,weatherlink.com 1.10,2013-03-07 09:01:00,
2013-03-07 01:16:00,42.7,37.0,29.87,SSW,206,10.0,13.0,80,0.00,,,0.23,weatherlink.com 1.10,2013-03-07 09:16:00,
2013-03-07 01:31:00,42.9,37.0,29.87,SW,214,11.0,15.0,79,0.00,,,0.23,weatherlink.com 1.10,2013-03-07 09:31:00,
2013-03-07 01:46:00,42.7,37.0,29.88,SSW,207,16.0,17.0,79,0.00,,,0.00,weatherlink.com 1.10,2013-03-07 09:46:00,
2013-03-07 02:01:00,42.5,36.0,29.88,SSW,213,16.0,18.0,79,0.00,,,0.00,weatherlink.com 1.10,2013-03-07 10:01:00,
2013-03-07 02:17:00,42.5,37.0,29.89,SSW,207,10.0,19.0,80,0.00,,,0.00,weatherlink.com 1.10,2013-03-07 10:17:00,
2013-03-07 02:32:00,41.9,37.0,29.89,SSW,209,10.0,12.0,81,0.00,,,0.00,weatherlink.com 1.10,2013-03-07 10:32:00,
2013-03-07 02:47:00,41.8,37.0,29.89,SSW,209,9.0,16.0,82,0.00,,,0.00,weatherlink.com 1.10,2013-03-07 10:47:00,
2013-03-07 03:02:00,41.8,37.0,29.90,SW,215,14.0,14.0,82,0.00,,,0.00,weatherlink.com 1.10,2013-03-07 11:02:00,
2013-03-07 03:17:00,41.6,37.0,29.90,SW,215,10.0,12.0,82,0.00,,,0.00,weatherlink.com 1.10,2013-03-07 11:17:00,
2013-03-07 03:32:00,41.6,36.0,29.91,SW,217,13.0,15.0,81,0.00,,,0.00,weatherlink.com 1.10,2013-03-07 11:32:00,
2013-03-07 03:47:00,41.1,36.0,29.91,SSW,207,8.0,10.0,82,0.00,,,0.00,weatherlink.com 1.10,2013-03-07 11:47:00,
2013-03-07 04:02:00,41.3,36.0,29.92,SSW,207,6.0,8.0,81,0.00,,,0.00,weatherlink.com 1.10,2013-03-07 12:02:00,
2013-03-07 04:17:00,41.3,36.0,29.92,SSW,202,8.0,13.0,80,0.00,,,0.00,weatherlink.com 1.10,2013-03-07 12:17:00,
2013-03-07 04:32:00,40.0,35.0,29.92,SW,221,10.0,12.0,82,0.00,,,0.00,weatherlink.com 1.10,2013-03-07 12:32:00,
2013-03-07 04:47:00,39.0,35.0,29.92,WNW,300,4.0,10.0,84,0.00,,,0.00,weatherlink.com 1.10,2013-03-07 12:47:00,
2013-03-07 05:02:00,38.5,34.0,29.93,WNW,288,3.0,8.0,85,0.00,,,0.00,weatherlink.com 1.10,2013-03-07 13:02:00,
2013-03-07 05:17:00,38.1,34.0,29.93,WNW,295,4.0,6.0,86,0.00,,,0.00,weatherlink.com 1.10,2013-03-07 13:17:00,
2013-03-07 05:32:00,38.0,34.0,29.94,WNW,297,4.0,8.0,86,0.00,,,0.00,weatherlink.com 1.10,2013-03-07 13:32:00,
2013-03-07 05:47:00,37.8,34.0,29.95,WNW,297,2.0,7.0,86,0.00,,,0.00,weatherlink.com 1.10,2013-03-07 13:47:00,
2013-03-07 06:02:00,36.9,33.0,29.95,WNW,292,3.0,5.0,87,0.00,,,0.00,weatherlink.com 1.10,2013-03-07 14:02:00,
2013-03-07 06:17:00,36.4,33.0,29.96,WSW,257,2.0,6.0,87,0.00,,,0.00,weatherlink.com 1.10,2013-03-07 14:17:00,
2013-03-07 06:32:00,36.4,33.0,29.96,West,279,4.0,7.0,87,0.00,,,0.00,weatherlink.com 1.10,2013-03-07 14:32:00,
2013-03-07 06:47:00,36.2,32.0,29.97,West,281,3.0,5.0,86,0.00,,,0.00,weatherlink.com 1.10,2013-03-07 14:47:00,
2013-03-07 07:02:00,36.3,33.0,29.97,WNW,300,2.0,6.0,86,0.00,,,0.00,weatherlink.com 1.10,2013-03-07 15:02:00,
2013-03-07 07:17:00,36.5,33.0,29.98,WSW,252,4.0,6.0,86,0.00,,,0.00,weatherlink.com 1.10,2013-03-07 15:17:00,
2013-03-07 07:32:00,37.5,34.0,29.98,West,273,5.0,6.0,86,0.00,,,0.00,weatherlink.com 1.10,2013-03-07 15:32:00,
2013-03-07 07:47:00,38.8,35.0,29.98,WNW,292,3.0,6.0,85,0.00,,,0.00,weatherlink.com 1.10,2013-03-07 15:47:00,
2013-03-07 08:02:00,40.3,36.0,29.98,West,280,2.0,7.0,84,0.00,,,0.00,weatherlink.com 1.10,2013-03-07 16:02:00,
2013-03-07 08:17:00,41.8,36.0,29.98,WNW,292,7.0,8.0,81,0.00,,,0.00,weatherlink.com 1.10,2013-03-07 16:17:00,
2013-03-07 08:32:00,43.7,36.0,29.99,SW,220,12.0,16.0,75,0.00,,,0.00,weatherlink.com 1.10,2013-03-07 16:32:00,
2013-03-07 08:47:00,44.0,36.0,30.00,SW,230,8.0,16.0,73,0.00,,,0.00,weatherlink.com 1.10,2013-03-07 16:47:00,
2013-03-07 09:02:00,44.0,36.0,30.00,SW,232,9.0,14.0,74,0.00,,,0.00,weatherlink.com 1.10,2013-03-07 17:02:00,
2013-03-07 09:17:00,44.9,37.0,30.00,SSW,211,8.0,14.0,75,0.00,,,0.00,weatherlink.com 1.10,2013-03-07 17:17:00,
2013-03-07 09:33:00,45.5,37.0,30.00,SW,230,10.0,13.0,71,0.00,,,0.00,weatherlink.com 1.10,2013-03-07 17:33:00,
2013-03-07 09:48:00,46.4,36.0,30.00,SW,223,14.0,17.0,66,0.00,,,0.00,weatherlink.com 1.10,2013-03-07 17:48:00,
2013-03-07 10:03:00,46.5,35.0,30.00,SW,219,9.0,17.0,64,0.00,,,0.00,weatherlink.com 1.10,2013-03-07 18:03:00,
2013-03-07 10:18:00,47.6,36.0,30.00,SW,227,11.0,13.0,65,0.00,,,0.00,weatherlink.com 1.10,2013-03-07 18:18:00,
2013-03-07 10:33:00,47.9,35.0,30.00,SW,214,12.0,19.0,62,0.00,,,0.00,weatherlink.com 1.10,2013-03-07 18:33:00,
2013-03-07 10:48:00,48.3,35.0,29.99,SSW,211,11.0,18.0,61,0.00,,,0.00,weatherlink.com 1.10,2013-03-07 18:48:00,
2013-03-07 11:18:00,49.3,39.0,30.00,SW,235,9.0,18.0,67,0.00,,,0.00,weatherlink.com 1.10,2013-03-07 19:18:00,
2013-03-07 11:33:00,50.6,37.0,30.00,WNW,298,8.0,11.0,59,0.00,,,0.00,weatherlink.com 1.10,2013-03-07 19:33:00,
2013-03-07 11:48:00,50.9,35.0,29.99,NW,321,7.0,11.0,56,0.00,,,0.00,weatherlink.com 1.10,2013-03-07 19:48:00,
2013-03-07 12:03:00,51.4,37.0,29.99,WNW,292,5.0,12.0,58,0.00,,,0.00,weatherlink.com 1.10,2013-03-07 20:03:00,
2013-03-07 12:18:00,52.1,37.0,29.98,WNW,292,9.0,10.0,56,0.00,,,0.00,weatherlink.com 1.10,2013-03-07 20:18:00,
2013-03-07 12:33:00,52.5,37.0,29.98,WNW,303,7.0,9.0,55,0.00,,,0.00,weatherlink.com 1.10,2013-03-07 20:33:00,
2013-03-07 12:48:00,53.1,35.0,29.98,WNW,302,5.0,11.0,51,0.00,,,0.00,weatherlink.com 1.10,2013-03-07 20:48:00,
2013-03-07 13:03:00,53.0,34.0,29.98,NW,313,6.0,10.0,48,0.00,,,0.00,weatherlink.com 1.10,2013-03-07 21:03:00,
2013-03-07 13:18:00,53.4,34.0,29.98,WNW,283,6.0,9.0,48,0.00,,,0.00,weatherlink.com 1.10,2013-03-07 21:18:00,
2013-03-07 13:33:00,53.7,36.0,29.98,WNW,300,3.0,8.0,52,0.00,,,0.00,weatherlink.com 1.10,2013-03-07 21:33:00,
2013-03-07 13:48:00,54.1,34.0,29.98,West,277,5.0,10.0,47,0.00,,,0.00,weatherlink.com 1.10,2013-03-07 21:48:00,
2013-03-07 14:03:00,54.3,34.0,29.98,NW,319,5.0,8.0,47,0.00,,,0.00,weatherlink.com 1.10,2013-03-07 22:03:00,
2013-03-07 14:18:00,54.7,33.0,29.97,NNW,332,4.0,9.0,44,0.00,,,0.00,weatherlink.com 1.10,2013-03-07 22:18:00,
2013-03-07 14:33:00,54.6,32.0,29.97,WNW,292,3.0,8.0,43,0.00,,,0.00,weatherlink.com 1.10,2013-03-07 22:33:00,
2013-03-07 14:48:00,54.8,30.0,29.97,WNW,288,5.0,7.0,39,0.00,,,0.00,weatherlink.com 1.10,2013-03-07 22:48:00,
2013-03-07 15:03:00,54.9,31.0,29.97,WNW,287,7.0,8.0,40,0.00,,,0.00,weatherlink.com 1.10,2013-03-07 23:03:00,
2013-03-07 15:18:00,54.7,29.0,29.97,NW,314,3.0,10.0,38,0.00,,,0.00,weatherlink.com 1.10,2013-03-07 23:18:00,
2013-03-07 15:33:00,55.2,30.0,29.96,WNW,288,3.0,6.0,38,0.00,,,0.00,weatherlink.com 1.10,2013-03-07 23:33:00,
2013-03-07 15:48:00,55.4,29.0,29.96,NNW,342,2.0,6.0,37,0.00,,,0.00,weatherlink.com 1.10,2013-03-07 23:48:00,
2013-03-07 16:03:00,55.9,28.0,29.96,WNW,295,3.0,4.0,34,0.00,,,0.00,weatherlink.com 1.10,2013-03-08 00:03:00,
2013-03-07 16:18:00,55.4,27.0,29.95,WNW,303,2.0,5.0,33,0.00,,,0.00,weatherlink.com 1.10,2013-03-08 00:18:00,
2013-03-07 16:33:00,55.6,25.0,29.95,North,355,1.0,4.0,31,0.00,,,0.00,weatherlink.com 1.10,2013-03-08 00:33:00,
2013-03-07 16:48:00,55.2,26.0,29.95,WNW,292,3.0,3.0,33,0.00,,,0.00,weatherlink.com 1.10,2013-03-08 00:48:00,
2013-03-07 17:03:00,54.7,25.0,29.95,WNW,303,1.0,3.0,32,0.00,,,0.00,weatherlink.com 1.10,2013-03-08 01:03:00,
2013-03-07 17:18:00,54.8,29.0,29.95,WSW,245,0.0,1.0,38,0.00,,,0.00,weatherlink.com 1.10,2013-03-08 01:18:00,
2013-03-07 17:33:00,53.6,28.0,29.96,WSW,245,0.0,1.0,37,0.00,,,0.00,weatherlink.com 1.10,2013-03-08 01:33:00,
2013-03-07 17:48:00,51.3,24.0,29.96,WSW,245,0.0,1.0,35,0.00,,,0.00,weatherlink.com 1.10,2013-03-08 01:48:00,
2013-03-07 18:03:00,48.7,24.0,29.96,WSW,244,0.0,1.0,38,0.00,,,0.00,weatherlink.com 1.10,2013-03-08 02:03:00,
2013-03-07 18:18:00,47.9,23.0,29.96,SE,140,0.0,1.0,38,0.00,,,0.00,weatherlink.com 1.10,2013-03-08 02:18:00,
2013-03-07 18:48:00,46.1,24.0,29.97,SE,141,0.0,1.0,42,0.00,,,0.00,weatherlink.com 1.10,2013-03-08 02:48:00,
2013-03-07 19:03:00,46.4,26.0,29.97,South,182,0.0,0.0,45,0.00,,,0.00,weatherlink.com 1.10,2013-03-08 03:03:00,
2013-03-07 19:33:00,44.3,27.0,29.97,South,182,5.0,6.0,51,0.00,,,0.00,weatherlink.com 1.10,2013-03-08 03:33:00,
2013-03-07 19:48:00,43.2,27.0,29.98,North,355,5.0,6.0,54,0.00,,,0.00,weatherlink.com 1.10,2013-03-08 03:48:00,
2013-03-07 20:03:00,42.9,28.0,29.98,North,360,6.0,6.0,55,0.00,,,0.00,weatherlink.com 1.10,2013-03-08 04:03:00,
2013-03-07 20:18:00,41.8,27.0,29.98,North,360,3.0,6.0,57,0.00,,,0.00,weatherlink.com 1.10,2013-03-08 04:18:00,
2013-03-07 20:33:00,41.1,28.0,29.98,NNE,19,4.0,6.0,59,0.00,,,0.00,weatherlink.com 1.10,2013-03-08 04:33:00,
2013-03-07 20:48:00,40.6,28.0,29.98,NNE,19,6.0,6.0,60,0.00,,,0.00,weatherlink.com 1.10,2013-03-08 04:48:00,
2013-03-07 21:03:00,41.7,28.0,29.98,NNE,19,4.0,7.0,58,0.00,,,0.00,weatherlink.com 1.10,2013-03-08 05:03:00,
2013-03-07 21:18:00,40.8,27.0,29.98,NNE,19,6.0,6.0,59,0.00,,,0.00,weatherlink.com 1.10,2013-03-08 05:18:00,
2013-03-07 21:34:00,40.0,28.0,29.99,NNE,18,6.0,7.0,62,0.00,,,0.00,weatherlink.com 1.10,2013-03-08 05:34:00,
2013-03-07 21:49:00,41.9,27.0,29.98,ESE,122,1.0,2.0,56,0.00,,,0.00,weatherlink.com 1.10,2013-03-08 05:49:00,
2013-03-07 22:04:00,39.3,28.0,29.98,North,355,5.0,6.0,64,0.00,,,0.00,weatherlink.com 1.10,2013-03-08 06:04:00,
2013-03-07 22:19:00,37.6,27.0,29.99,North,355,5.0,7.0,67,0.00,,,0.00,weatherlink.com 1.10,2013-03-08 06:19:00,
2013-03-07 22:34:00,43.9,27.0,29.98,SE,138,2.0,2.0,52,0.00,,,0.00,weatherlink.com 1.10,2013-03-08 06:34:00,
2013-03-07 22:49:00,41.3,27.0,29.99,ESE,117,3.0,4.0,57,0.00,,,0.00,weatherlink.com 1.10,2013-03-08 06:49:00,
2013-03-07 23:19:00,38.4,27.0,29.99,WNW,295,1.0,2.0,65,0.00,,,0.00,weatherlink.com 1.10,2013-03-08 07:19:00,
2013-03-07 23:34:00,36.0,27.0,29.99,West,261,0.0,2.0,71,0.00,,,0.00,weatherlink.com 1.10,2013-03-08 07:34:00,
2013-03-07 23:49:00,33.9,26.0,29.99,East,97,1.0,3.0,74,0.00,,,0.00,weatherlink.com 1.10,2013-03-08 07:49:00,